Time;durP1;ratioP1;P1;durP2;ratioP2;P2;SDS_P1;SDS_P2;PMS_P1;PMS_P2;Temp;Humidity;BMP_temperature;BMP_pressure;BME280_temperature;BME280_humidity;BME280_pressure;Samples;Min_cycle;Max_cycle;Signal;HPM_P1;HPM_P2
2022/04/22 00:00:46;;;;;;;5.03;3.63;;;;;;;10.20;90.54;99642.22;5093160;28;20041;-62
2022/04/22 00:03:14;;;;;;;3.58;3.25;;;;;;;10.32;90.04;99621.78;5093281;28;20367;-62
2022/04/22 00:05:44;;;;;;;4.50;3.58;;;;;;;10.29;89.95;99625.94;5093080;28;20059;-62
2022/04/22 00:08:12;;;;;;;4.45;3.67;;;;;;;10.31;88.51;99620.16;5093086;28;20052;-62
2022/04/22 00:11:29;;;;;;;4.38;2.85;;;;;;;10.50;87.25;99632.97;5093073;28;20498;-62
2022/04/22 00:13:28;;;;;;;5.70;3.60;;;;;;;10.63;86.45;99626.69;5093157;28;20047;-62
2022/04/22 00:15:56;;;;;;;6.40;4.32;;;;;;;10.72;86.31;99629.53;5092597;28;20048;-62
2022/04/22 00:18:24;;;;;;;8.10;5.88;;;;;;;10.52;90.29;99628.84;5078537;28;20048;-62
2022/04/22 00:20:52;;;;;;;7.63;5.57;;;;;;;10.55;87.69;99608.28;5092904;28;20051;-62
2022/04/22 00:23:20;;;;;;;11.45;6.00;;;;;;;10.50;90.16;99605.63;5092919;28;20036;-62
2022/04/22 00:25:48;;;;;;;11.90;6.53;;;;;;;10.34;92.48;99614.09;5088922;28;20045;-62
2022/04/22 00:28:16;;;;;;;9.25;6.75;;;;;;;10.39;91.57;99605.78;5088459;28;20044;-62
2022/04/22 00:30:44;;;;;;;10.50;6.40;;;;;;;10.34;93.11;99603.16;5092716;28;20526;-62
2022/04/22 00:33:12;;;;;;;9.38;6.75;;;;;;;10.26;94.40;99584.72;5092709;28;20490;-62
2022/04/22 00:35:41;;;;;;;12.82;7.53;;;;;;;10.24;94.61;99581.44;5092809;28;20066;-63
2022/04/22 00:38:09;;;;;;;10.35;6.72;;;;;;;10.24;95.37;99578.72;5092136;28;20036;-63
2022/04/22 00:40:37;;;;;;;11.02;7.80;;;;;;;10.24;93.63;99576.81;5092354;28;20543;-63
2022/04/22 00:43:19;;;;;;;13.10;7.15;;;;;;;10.02;96.28;99572.81;5092430;28;20052;-63
2022/04/22 00:45:49;;;;;;;13.18;7.82;;;;;;;9.98;96.36;99571.00;5092330;28;20506;-62
2022/04/22 00:48:19;;;;;;;15.38;8.20;;;;;;;10.07;95.44;99572.72;5092649;28;20398;-62
2022/04/22 00:50:48;;;;;;;13.00;7.70;;;;;;;10.04;96.57;99567.06;5092000;28;20398;-62
2022/04/22 00:53:16;;;;;;;10.85;7.07;;;;;;;10.04;95.48;99567.88;5092307;28;20044;-62
2022/04/22 00:55:45;;;;;;;11.07;7.55;;;;;;;10.05;94.59;99557.75;5091816;28;20055;-62
2022/04/22 00:58:14;;;;;;;14.05;8.25;;;;;;;9.87;97.64;99562.97;5092085;28;20048;-62
2022/04/22 01:00:42;;;;;;;14.00;9.15;;;;;;;9.92;97.26;99560.16;5091823;28;20490;-63
2022/04/22 01:03:10;;;;;;;12.80;8.05;;;;;;;10.02;95.93;99544.69;5092235;28;20044;-62
2022/04/22 01:11:14;;;;;;;15.43;8.63;;;;;;;10.22;94.62;99541.56;5092035;28;20051;-62
2022/04/22 01:13:44;;;;;;;12.88;8.50;;;;;;;10.14;95.83;99550.47;5092330;28;20027;-62
2022/04/22 01:16:12;;;;;;;16.70;8.57;;;;;;;10.21;94.88;99539.13;5092209;28;20494;-62
2022/04/22 01:18:41;;;;;;;15.23;8.85;;;;;;;10.21;94.54;99537.19;5091758;28;20044;-62
2022/04/22 01:21:09;;;;;;;14.80;9.45;;;;;;;10.09;96.27;99531.44;5091799;28;20407;-63
2022/04/22 01:23:37;;;;;;;14.20;8.60;;;;;;;10.19;96.44;99520.31;5091792;28;20051;-63
2022/04/22 01:26:06;;;;;;;15.45;8.88;;;;;;;10.06;95.87;99515.63;5085294;28;20052;-62
2022/04/22 01:28:34;;;;;;;13.10;9.27;;;;;;;10.15;96.06;99513.81;5089415;28;20047;-63
2022/04/22 01:31:02;;;;;;;15.68;9.43;;;;;;;10.06;97.16;99516.44;5092042;28;20043;-62
2022/04/22 01:33:30;;;;;;;15.88;8.60;;;;;;;10.14;97.07;99503.19;5091728;28;20040;-63
2022/04/22 01:35:59;;;;;;;16.50;9.00;;;;;;;10.32;95.75;99502.25;5082937;28;20051;-62
2022/04/22 01:38:27;;;;;;;15.57;9.20;;;;;;;10.35;94.58;99496.19;5087267;28;20044;-62
2022/04/22 01:40:55;;;;;;;15.88;9.70;;;;;;;10.21;96.51;99493.47;5082406;28;20049;-62
2022/04/22 01:43:23;;;;;;;17.13;9.45;;;;;;;10.14;97.31;99495.78;5079485;28;20071;-63
2022/04/22 01:45:52;;;;;;;14.13;8.98;;;;;;;9.94;99.17;99489.59;5083965;28;20055;-62
2022/04/22 01:48:21;;;;;;;15.77;9.73;;;;;;;9.77;98.53;99484.72;5091843;28;20067;-63
2022/04/22 01:50:49;;;;;;;14.35;9.68;;;;;;;9.75;99.67;99478.75;5091908;28;20410;-62
2022/04/22 01:53:17;;;;;;;13.30;9.32;;;;;;;9.89;99.02;99469.75;5091670;28;20048;-62
2022/04/22 01:55:46;;;;;;;16.42;9.77;;;;;;;9.95;99.13;99469.38;5091670;28;20044;-62
2022/04/22 01:58:14;;;;;;;14.60;8.75;;;;;;;9.88;100.00;99463.47;5091652;28;20047;-62
2022/04/22 02:00:42;;;;;;;19.65;9.85;;;;;;;9.84;100.00;99464.38;5091546;28;20052;-62
2022/04/22 02:03:10;;;;;;;18.02;10.32;;;;;;;9.81;100.00;99463.88;5090917;28;20040;-62
2022/04/22 02:05:40;;;;;;;19.25;10.02;;;;;;;9.89;100.00;99453.38;5091776;28;20044;-62
2022/04/22 02:08:09;;;;;;;14.13;9.38;;;;;;;9.70;100.00;99447.97;5091472;28;20051;-62
2022/04/22 02:10:37;;;;;;;18.20;10.80;;;;;;;9.71;100.00;99438.66;5092714;28;20505;-62
2022/04/22 02:13:05;;;;;;;19.30;10.65;;;;;;;9.71;100.00;99433.19;5095344;28;20074;-63
2022/04/22 02:15:33;;;;;;;16.33;9.57;;;;;;;9.98;98.96;99431.59;5095317;28;20051;-62
2022/04/22 02:18:01;;;;;;;13.32;9.55;;;;;;;10.11;95.99;99430.78;5094724;28;20503;-62
2022/04/22 02:20:29;;;;;;;17.40;9.65;;;;;;;10.08;97.28;99425.94;5094916;28;20052;-62
2022/04/22 02:22:57;;;;;;;18.20;10.32;;;;;;;10.03;97.73;99417.84;5095073;28;20044;-62
2022/04/22 02:25:25;;;;;;;15.63;9.77;;;;;;;9.99;99.84;99416.81;5074859;28;20079;-62
2022/04/22 02:30:39;;;;;;;20.65;10.25;;;;;;;9.70;100.00;99407.81;5095017;28;20599;-62
2022/04/22 02:33:07;;;;;;;16.27;9.68;;;;;;;9.84;99.34;99409.75;5095299;28;20040;-63
2022/04/22 02:35:35;;;;;;;17.02;9.88;;;;;;;9.89;100.00;99401.44;5094855;28;20048;-62
2022/04/22 02:38:03;;;;;;;18.50;10.10;;;;;;;9.92;99.68;99392.66;5094877;28;20394;-62
2022/04/22 02:46:04;;;;;;;18.77;10.35;;;;;;;9.74;100.00;99386.16;5086451;28;20396;-62
2022/04/22 02:48:33;;;;;;;19.35;10.20;;;;;;;9.82;100.00;99385.44;5089199;28;20039;-64
2022/04/22 02:51:02;;;;;;;17.70;11.05;;;;;;;9.71;100.00;99384.84;5094427;28;20055;-62
2022/04/22 02:53:30;;;;;;;18.83;10.52;;;;;;;9.81;100.00;99379.19;5094806;28;20044;-62
2022/04/22 02:55:58;;;;;;;19.75;11.18;;;;;;;9.92;99.80;99377.03;5094332;28;20048;-63
2022/04/22 02:58:26;;;;;;;15.20;10.13;;;;;;;10.08;97.21;99371.28;5094161;28;20039;-63
2022/04/22 03:00:55;;;;;;;20.35;11.15;;;;;;;10.19;98.92;99363.66;5093997;28;20048;-63
2022/04/22 03:03:23;;;;;;;15.23;9.68;;;;;;;10.07;98.99;99370.44;5094635;28;20048;-62
2022/04/22 03:05:51;;;;;;;16.17;10.13;;;;;;;10.00;99.95;99347.38;5094349;28;20114;-62
2022/04/22 03:08:19;;;;;;;20.10;11.55;;;;;;;10.03;98.75;99357.72;5094154;28;20052;-62
2022/04/22 03:10:48;;;;;;;17.48;10.40;;;;;;;9.91;99.86;99355.47;5093944;28;20059;-63
2022/04/22 03:13:16;;;;;;;19.25;11.23;;;;;;;9.73;100.00;99343.56;5094031;28;20044;-62
2022/04/22 03:15:45;;;;;;;19.35;10.70;;;;;;;9.81;100.00;99342.84;5094443;28;20040;-63
2022/04/22 03:18:13;;;;;;;18.10;11.52;;;;;;;9.72;100.00;99339.22;5092009;28;20048;-62
2022/04/22 03:20:41;;;;;;;15.45;10.77;;;;;;;9.79;100.00;99331.44;5093976;28;20052;-63
2022/04/22 03:23:09;;;;;;;19.58;12.20;;;;;;;9.78;100.00;99330.59;5094075;28;20390;-63
2022/04/22 03:25:37;;;;;;;20.38;12.52;;;;;;;9.87;100.00;99327.97;5086075;28;20040;-62
2022/04/22 03:28:05;;;;;;;20.90;12.10;;;;;;;9.94;100.00;99322.88;5087360;28;20048;-63
2022/04/22 03:30:34;;;;;;;17.75;11.13;;;;;;;9.82;100.00;99319.88;5094287;28;20056;-62
2022/04/22 03:33:02;;;;;;;20.45;12.07;;;;;;;9.79;100.00;99321.28;5093835;28;20048;-63
2022/04/22 03:35:30;;;;;;;20.45;11.63;;;;;;;9.72;100.00;99320.09;5093857;28;20496;-63
2022/04/22 03:37:58;;;;;;;17.02;11.50;;;;;;;9.72;100.00;99314.63;5093526;28;20048;-62
2022/04/22 03:40:26;;;;;;;25.27;12.55;;;;;;;9.76;100.00;99310.16;5088035;28;21009;-63
2022/04/22 03:42:54;;;;;;;20.23;12.85;;;;;;;9.82;100.00;99306.22;5068814;28;20044;-63
2022/04/22 03:45:22;;;;;;;17.35;11.40;;;;;;;9.81;100.00;99294.50;5072872;28;20052;-63
2022/04/22 03:47:50;;;;;;;18.98;12.45;;;;;;;9.94;100.00;99301.03;5073098;28;20081;-63
2022/04/22 03:50:18;;;;;;;21.42;12.68;;;;;;;10.11;99.64;99298.78;5072998;28;20075;-63
2022/04/22 03:52:46;;;;;;;19.80;12.00;;;;;;;10.02;100.00;99291.28;5073131;28;20051;-62
2022/04/22 03:55:13;;;;;;;21.77;11.77;;;;;;;9.97;100.00;99299.59;5073048;28;20075;-63
2022/04/22 04:00:28;;;;;;;23.08;13.35;;;;;;;10.04;100.00;99289.06;5072646;28;20045;-63
2022/04/22 04:02:56;;;;;;;21.92;13.25;;;;;;;10.16;100.00;99288.50;5060222;28;20052;-63
2022/04/22 04:05:24;;;;;;;21.45;12.50;;;;;;;10.11;100.00;99285.91;5082127;28;20052;-63
2022/04/22 04:07:52;;;;;;;21.65;11.75;;;;;;;10.09;100.00;99286.19;5092900;28;20040;-62
2022/04/22 04:15:59;;;;;;;19.80;12.77;;;;;;;9.73;100.00;99287.00;5093317;28;20051;-63
2022/04/22 04:18:37;;;;;;;23.65;12.45;;;;;;;9.79;100.00;99276.78;5092894;28;20052;-63
2022/04/22 04:23:56;;;;;;;21.50;12.25;;;;;;;9.64;100.00;99270.50;5072984;28;20506;-62
2022/04/22 04:26:25;;;;;;;24.25;12.68;;;;;;;9.66;100.00;99265.56;5072365;28;20067;-62
2022/04/22 04:28:54;;;;;;;21.38;12.32;;;;;;;9.71;100.00;99263.81;5072013;28;20052;-62
2022/04/22 04:31:22;;;;;;;22.35;11.60;;;;;;;9.71;100.00;99263.81;5072029;28;20041;-63
2022/04/22 04:33:50;;;;;;;24.35;13.13;;;;;;;9.87;100.00;99265.13;5071679;28;20040;-63
2022/04/22 04:36:18;;;;;;;18.90;11.50;;;;;;;9.80;100.00;99267.47;5075564;28;20052;-63
2022/04/22 04:38:46;;;;;;;18.20;11.75;;;;;;;9.89;100.00;99256.63;5072488;28;20044;-63
2022/04/22 04:41:14;;;;;;;25.13;13.15;;;;;;;9.94;100.00;99261.97;5068382;28;20044;-62
2022/04/22 04:43:42;;;;;;;19.02;12.02;;;;;;;9.82;100.00;99265.22;5062139;28;20041;-62
2022/04/22 04:46:10;;;;;;;18.85;12.15;;;;;;;9.83;100.00;99261.41;5065431;28;20044;-63
2022/04/22 04:48:38;;;;;;;18.85;11.90;;;;;;;9.81;100.00;99253.50;5071770;28;20368;-62
2022/04/22 04:51:06;;;;;;;23.10;13.10;;;;;;;9.85;100.00;99259.16;5072091;28;20040;-63
2022/04/22 04:53:34;;;;;;;20.73;12.43;;;;;;;9.79;100.00;99252.19;5071635;28;20051;-62
2022/04/22 04:56:02;;;;;;;24.15;11.93;;;;;;;9.99;100.00;99261.03;5071987;28;20040;-62
2022/04/22 04:58:30;;;;;;;22.05;13.05;;;;;;;9.98;100.00;99267.63;5071579;28;20048;-62
2022/04/22 05:00:58;;;;;;;20.15;12.38;;;;;;;10.07;100.00;99265.78;5063557;28;20052;-63
2022/04/22 05:03:26;;;;;;;22.85;12.80;;;;;;;10.09;100.00;99269.00;5070608;28;20044;-62
2022/04/22 05:05:54;;;;;;;23.58;13.60;;;;;;;10.22;100.00;99265.41;5078907;28;20064;-62
2022/04/22 05:08:22;;;;;;;19.27;13.23;;;;;;;10.15;100.00;99262.31;5071520;28;20044;-63
2022/04/22 05:10:50;;;;;;;20.88;11.32;;;;;;;10.33;100.00;99256.97;5071828;28;20039;-62
2022/04/22 05:13:18;;;;;;;22.90;11.82;;;;;;;10.45;100.00;99262.72;5071676;28;20036;-63
2022/04/22 05:15:49;;;;;;;21.02;11.88;;;;;;;10.55;100.00;99258.13;5071826;28;20048;-63
2022/04/22 05:18:18;;;;;;;20.88;11.95;;;;;;;10.68;97.49;99256.41;5069267;28;20052;-67
2022/04/22 05:20:47;;;;;;;20.17;11.90;;;;;;;11.01;96.39;99253.38;5045736;28;20391;-68
2022/04/22 05:23:15;;;;;;;22.60;12.10;;;;;;;11.21;94.63;99262.94;5048544;28;20053;-67
2022/04/22 05:25:43;;;;;;;19.55;11.55;;;;;;;11.39;92.40;99268.47;5048576;28;20048;-67
2022/04/22 05:28:12;;;;;;;20.48;10.88;;;;;;;11.44;93.38;99257.34;5053363;28;20048;-68
2022/04/22 05:33:27;;;;;;;19.17;11.55;;;;;;;11.23;96.10;99257.13;5050846;28;20048;-67
2022/04/22 05:35:55;;;;;;;18.60;11.57;;;;;;;11.14;96.40;99266.13;5026664;28;20049;-68
2022/04/22 05:38:24;;;;;;;19.52;10.85;;;;;;;11.05;97.84;99267.22;5053414;28;20056;-68
2022/04/22 05:40:52;;;;;;;16.25;10.45;;;;;;;11.07;97.36;99262.22;5051556;28;20403;-67
2022/04/22 05:43:20;;;;;;;19.75;10.60;;;;;;;11.16;97.80;99263.09;5070944;28;20056;-67
2022/04/22 05:45:49;;;;;;;20.45;11.52;;;;;;;11.22;95.64;99261.81;5073766;28;20044;-67
2022/04/22 05:48:17;;;;;;;18.55;11.15;;;;;;;11.26;96.33;99265.53;5073070;28;20048;-68
2022/04/22 05:50:45;;;;;;;18.55;12.07;;;;;;;11.23;97.42;99263.44;5075492;28;20037;-67
2022/04/22 05:53:13;;;;;;;16.27;11.00;;;;;;;11.27;96.30;99261.69;5075380;28;20041;-67
2022/04/22 05:55:42;;;;;;;20.40;12.23;;;;;;;11.23;97.14;99266.16;5075369;28;20045;-68
2022/04/22 05:58:09;;;;;;;18.10;10.63;;;;;;;11.18;98.71;99262.78;5075433;28;20052;-67
2022/04/22 06:00:37;;;;;;;19.45;11.30;;;;;;;11.22;97.16;99258.25;5075176;28;20045;-68
2022/04/22 06:03:07;;;;;;;19.27;10.68;;;;;;;11.32;95.59;99254.41;5063976;28;20052;-67
2022/04/22 06:05:35;;;;;;;18.02;10.48;;;;;;;11.37;95.00;99254.28;5086371;28;20051;-68
2022/04/22 06:10:54;;;;;;;19.40;12.02;;;;;;;11.34;97.09;99246.72;5094189;28;20070;-68
2022/04/22 06:13:22;;;;;;;21.60;11.52;;;;;;;11.21;97.31;99253.91;5095229;28;20044;-68
2022/04/22 06:15:50;;;;;;;19.13;11.90;;;;;;;11.34;96.56;99254.94;5095586;28;20047;-68
2022/04/22 06:18:18;;;;;;;18.95;10.65;;;;;;;11.25;97.99;99250.22;5095087;28;20395;-68
2022/04/22 06:20:48;;;;;;;21.30;11.63;;;;;;;11.37;96.27;99246.06;5094127;28;20040;-68
2022/04/22 06:23:16;;;;;;;15.32;10.20;;;;;;;11.41;95.63;99247.88;5095276;28;20036;-68
2022/04/22 06:25:47;;;;;;;16.55;10.38;;;;;;;11.38;96.10;99245.75;5095221;28;20482;-68
2022/04/22 06:28:15;;;;;;;18.05;10.13;;;;;;;11.29;97.99;99242.16;5095215;28;20048;-68
2022/04/22 06:30:43;;;;;;;16.13;9.38;;;;;;;11.45;92.67;99250.78;5095045;28;20371;-68
2022/04/22 06:33:12;;;;;;;19.42;10.68;;;;;;;11.42;97.43;99243.19;5095079;28;20047;-68
2022/04/22 06:35:40;;;;;;;17.65;10.00;;;;;;;11.24;98.48;99248.59;5095171;28;20048;-68
2022/04/22 06:38:11;;;;;;;18.60;9.75;;;;;;;11.23;97.75;99255.22;5095090;28;20044;-68
2022/04/22 06:46:12;;;;;;;18.23;10.10;;;;;;;11.13;100.00;99253.56;5094836;28;20040;-68
2022/04/22 06:48:44;;;;;;;17.90;9.45;;;;;;;11.18;99.64;99249.09;5094969;28;20083;-68
2022/04/22 06:51:13;;;;;;;16.45;10.07;;;;;;;11.31;98.69;99250.06;5094829;28;20416;-68
2022/04/22 06:53:42;;;;;;;17.27;9.52;;;;;;;11.31;99.01;99258.28;5094726;28;20044;-67
2022/04/22 06:56:13;;;;;;;17.83;9.20;;;;;;;11.37;97.57;99259.75;5094012;28;20051;-68
2022/04/22 06:58:42;;;;;;;16.08;9.77;;;;;;;11.22;100.00;99263.75;5094859;28;20044;-68
2022/04/22 07:01:10;;;;;;;18.33;10.13;;;;;;;11.14;100.00;99257.91;5093354;28;20048;-67
2022/04/22 07:03:58;;;;;;;21.33;9.85;;;;;;;11.21;100.00;99252.00;5094666;28;20043;-67
2022/04/22 07:06:26;;;;;;;15.75;9.27;;;;;;;11.39;100.00;99260.28;5093147;28;20399;-67
2022/04/22 07:08:55;;;;;;;15.48;8.85;;;;;;;11.49;97.60;99265.44;5094457;28;20410;-67
2022/04/22 07:11:26;;;;;;;16.65;10.25;;;;;;;11.47;98.16;99254.00;5094413;28;20047;-67
2022/04/22 07:13:56;;;;;;;18.33;9.75;;;;;;;11.55;96.85;99255.16;5094581;28;20044;-67
2022/04/22 07:16:24;;;;;;;14.07;9.20;;;;;;;11.76;93.07;99263.56;5094282;28;20051;-67
2022/04/22 07:18:53;;;;;;;18.30;10.25;;;;;;;11.76;96.08;99258.09;5094180;28;20482;-67
2022/04/22 07:21:21;;;;;;;16.27;9.57;;;;;;;11.68;98.59;99261.59;5079977;28;20047;-68
2022/04/22 07:23:50;;;;;;;17.42;10.00;;;;;;;11.85;94.98;99273.72;5094440;28;20505;-67
2022/04/22 07:26:19;;;;;;;15.65;10.02;;;;;;;11.91;92.54;99273.25;5094121;28;20052;-67
2022/04/22 07:28:50;;;;;;;17.67;9.57;;;;;;;11.94;95.42;99266.31;5093915;28;20044;-67
2022/04/22 07:31:19;;;;;;;17.58;10.35;;;;;;;11.82;95.95;99269.69;5094174;28;20051;-68
2022/04/22 07:33:49;;;;;;;17.45;10.50;;;;;;;11.90;96.55;99276.31;5093895;28;20046;-67
2022/04/22 07:36:17;;;;;;;21.27;10.25;;;;;;;11.87;98.83;99276.97;5094079;28;20386;-67
2022/04/22 07:38:46;;;;;;;17.83;10.18;;;;;;;11.93;95.44;99281.16;5093826;28;20043;-67
2022/04/22 07:41:18;;;;;;;14.98;9.43;;;;;;;12.02;94.95;99267.47;5094034;28;20043;-67
2022/04/22 07:46:48;;;;;;;15.52;8.90;;;;;;;12.03;98.82;99275.34;5092496;28;20059;-67
2022/04/22 07:49:20;;;;;;;18.33;10.67;;;;;;;12.20;96.34;99276.50;5093683;28;20056;-68
2022/04/22 07:51:49;;;;;;;18.10;9.75;;;;;;;12.18;97.19;99276.03;5093835;28;20036;-67
2022/04/22 07:54:23;;;;;;;15.65;9.48;;;;;;;12.18;94.08;99278.78;5093825;28;20402;-67
2022/04/22 07:56:51;;;;;;;14.85;9.25;;;;;;;12.22;93.62;99277.00;5093806;28;20043;-68
2022/04/22 07:59:19;;;;;;;16.00;9.38;;;;;;;12.34;92.31;99271.69;5093551;28;20510;-67
2022/04/22 08:01:47;;;;;;;15.75;9.57;;;;;;;12.39;92.96;99276.19;5092352;28;20391;-67
2022/04/22 08:04:16;;;;;;;17.42;10.27;;;;;;;12.43;93.78;99270.84;5093438;28;20501;-67
2022/04/22 08:06:44;;;;;;;18.33;9.80;;;;;;;12.30;97.34;99269.88;5093327;28;20505;-68
2022/04/22 08:09:32;;;;;;;16.08;10.30;;;;;;;12.44;94.31;99270.53;5091263;28;20047;-67
2022/04/22 08:12:01;;;;;;;18.17;9.85;;;;;;;12.48;94.06;99268.75;5093390;28;20032;-67
2022/04/22 08:14:29;;;;;;;17.83;10.15;;;;;;;12.48;95.13;99263.25;5093275;28;20494;-68
2022/04/22 08:16:56;;;;;;;17.45;10.63;;;;;;;12.49;95.78;99267.63;5093030;28;20044;-68
2022/04/22 08:19:24;;;;;;;18.55;9.95;;;;;;;12.49;93.85;99264.88;5093326;28;20044;-68
2022/04/22 08:21:52;;;;;;;15.82;10.32;;;;;;;12.58;92.77;99258.56;5078739;28;20051;-68
2022/04/22 08:24:20;;;;;;;22.30;10.77;;;;;;;12.59;93.94;99262.91;5093099;28;20047;-68
2022/04/22 08:26:49;;;;;;;17.27;10.18;;;;;;;12.47;94.70;99255.38;5078672;28;20039;-68
2022/04/22 08:29:21;;;;;;;16.02;9.40;;;;;;;12.41;95.61;99253.91;5108140;28;20052;-68
2022/04/22 08:31:52;;;;;;;16.17;10.25;;;;;;;12.38;98.50;99262.78;5078456;28;20070;-68
2022/04/22 08:34:20;;;;;;;18.38;9.88;;;;;;;12.26;99.73;99256.03;5092922;28;20040;-68
2022/04/22 08:36:48;;;;;;;16.48;9.77;;;;;;;12.33;97.38;99267.31;5092959;28;20391;-68
2022/04/22 08:39:17;;;;;;;18.45;10.38;;;;;;;12.49;94.74;99261.31;5092680;28;20044;-68
2022/04/22 08:41:45;;;;;;;15.23;9.57;;;;;;;12.48;97.69;99271.47;5092818;28;20044;-68
2022/04/22 08:44:14;;;;;;;16.85;9.65;;;;;;;12.41;99.18;99257.47;5092187;28;20055;-68
2022/04/22 08:52:15;;;;;;;14.40;8.80;;;;;;;12.60;96.66;99270.00;5092621;28;20036;-68
2022/04/22 08:54:48;;;;;;;15.73;9.43;;;;;;;12.57;97.96;99265.97;5092537;28;20040;-69
2022/04/22 08:57:16;;;;;;;15.73;10.27;;;;;;;12.63;97.07;99267.41;5092523;28;20505;-68
2022/04/22 08:59:44;;;;;;;16.88;10.30;;;;;;;12.68;97.37;99269.22;5088747;28;20040;-69
2022/04/22 09:02:18;;;;;;;14.65;10.15;;;;;;;12.74;96.43;99269.81;5082378;28;20044;-68
2022/04/22 09:04:47;;;;;;;17.33;9.55;;;;;;;12.88;94.15;99273.19;5092445;28;20474;-68
2022/04/22 09:07:18;;;;;;;14.60;10.48;;;;;;;12.91;99.32;99266.25;5092365;28;20058;-68
2022/04/22 09:09:52;;;;;;;14.68;9.98;;;;;;;12.90;97.24;99278.34;5092165;28;20051;-68
2022/04/22 09:12:24;;;;;;;16.35;10.45;;;;;;;13.00;96.47;99261.50;5091235;28;20047;-68
2022/04/22 09:14:56;;;;;;;13.48;8.90;;;;;;;12.99;100.00;99275.56;5092250;28;20036;-68
2022/04/22 09:17:32;;;;;;;12.98;9.32;;;;;;;13.03;97.72;99274.59;5091628;28;20067;-68
2022/04/22 09:20:03;;;;;;;15.35;9.85;;;;;;;13.08;98.63;99279.09;5090600;28;20044;-68
2022/04/22 09:22:35;;;;;;;18.88;9.93;;;;;;;13.14;97.27;99286.03;5092269;28;20048;-68
2022/04/22 09:25:07;;;;;;;13.80;8.75;;;;;;;13.10;98.00;99281.53;5092168;28;20048;-68
2022/04/22 09:27:43;;;;;;;17.23;10.27;;;;;;;13.14;96.38;99279.72;5092259;28;20044;-68
2022/04/22 09:30:12;;;;;;;14.30;9.20;;;;;;;13.14;96.51;99285.19;5091960;28;20375;-68
2022/04/22 09:32:44;;;;;;;15.10;9.10;;;;;;;13.13;96.96;99287.16;5092180;28;20501;-68
2022/04/22 09:35:15;;;;;;;12.20;8.20;;;;;;;13.29;93.56;99284.66;5091993;28;20040;-68
2022/04/22 09:43:39;;;;;;;14.77;9.32;;;;;;;13.41;97.23;99292.19;5087128;28;20044;-68
2022/04/22 09:46:22;;;;;;;15.25;9.77;;;;;;;13.42;94.36;99293.81;5092048;28;20044;-68
2022/04/22 09:48:52;;;;;;;14.68;8.70;;;;;;;13.50;93.67;99286.69;5091848;28;20040;-68
2022/04/22 09:51:24;;;;;;;13.75;9.55;;;;;;;13.51;96.00;99296.56;5090730;28;20055;-68
2022/04/22 09:54:03;;;;;;;12.70;9.13;;;;;;;13.56;93.60;99296.38;5091878;28;20398;-68
2022/04/22 09:56:33;;;;;;;13.82;8.90;;;;;;;13.65;93.26;99307.28;5092079;28;20048;-68
2022/04/22 09:59:25;;;;;;;13.10;9.13;;;;;;;13.68;93.07;99303.91;5090460;28;20513;-68
2022/04/22 10:01:53;;;;;;;13.95;9.43;;;;;;;13.70;95.21;99307.09;5083331;28;20048;-68
2022/04/22 10:04:31;;;;;;;14.38;9.43;;;;;;;13.70;95.92;99309.06;5089866;28;20047;-68
2022/04/22 10:07:02;;;;;;;16.90;9.95;;;;;;;13.57;96.17;99305.41;5091794;28;20044;-68
2022/04/22 10:09:32;;;;;;;13.10;9.77;;;;;;;13.66;93.99;99302.63;5090334;28;20040;-68
2022/04/22 10:12:06;;;;;;;15.02;9.98;;;;;;;13.68;92.80;99312.16;5091967;28;20470;-68
2022/04/22 10:14:38;;;;;;;15.00;9.95;;;;;;;13.82;92.75;99311.09;5091528;28;20418;-68
2022/04/22 10:17:06;;;;;;;18.60;10.70;;;;;;;13.89;93.78;99321.56;5091484;28;20047;-68
2022/04/22 10:19:35;;;;;;;16.70;10.45;;;;;;;14.01;95.74;99323.56;5091634;28;20044;-68
2022/04/22 10:22:07;;;;;;;18.65;10.25;;;;;;;14.04;91.17;99323.75;5090579;28;20051;-68
2022/04/22 10:24:35;;;;;;;19.48;10.07;;;;;;;14.09;90.94;99325.47;5091603;28;20510;-68
2022/04/22 10:27:07;;;;;;;13.68;9.15;;;;;;;14.21;89.60;99328.31;5091289;28;20036;-68
2022/04/22 10:29:40;;;;;;;13.43;9.02;;;;;;;14.06;92.96;99329.72;5091567;28;20047;-68
2022/04/22 10:32:28;;;;;;;11.75;8.02;;;;;;;14.08;91.09;99324.66;5087218;28;20493;-68
2022/04/22 10:34:58;;;;;;;14.93;9.25;;;;;;;14.04;92.78;99333.94;5094115;28;20474;-68
2022/04/22 10:37:31;;;;;;;11.60;8.27;;;;;;;14.06;91.99;99334.38;5085546;28;20052;-68
2022/04/22 10:40:02;;;;;;;13.48;9.57;;;;;;;14.12;91.47;99330.31;5087048;28;20051;-68
2022/04/22 10:42:35;;;;;;;14.52;9.27;;;;;;;14.06;94.82;99326.97;5093852;28;20059;-68
2022/04/22 10:47:56;;;;;;;15.48;8.80;;;;;;;14.30;89.45;99335.69;5094935;28;20034;-68
2022/04/22 10:50:25;;;;;;;15.15;9.40;;;;;;;14.42;89.40;99329.44;5094816;28;20044;-68
2022/04/22 10:53:08;;;;;;;13.38;8.68;;;;;;;14.42;88.06;99335.72;5093722;28;20059;-68
2022/04/22 10:55:37;;;;;;;10.52;7.13;;;;;;;14.42;87.95;99341.25;5094776;28;20063;-68
2022/04/22 10:58:23;;;;;;;11.48;6.93;;;;;;;14.36;89.10;99337.09;5093415;28;20040;-68
2022/04/22 11:00:58;;;;;;;11.13;7.47;;;;;;;14.33;89.47;99348.78;5089561;28;20056;-68
2022/04/22 11:03:36;;;;;;;9.75;6.75;;;;;;;14.36;91.44;99351.66;5094546;28;20044;-68
2022/04/22 11:06:12;;;;;;;9.48;7.30;;;;;;;14.40;90.59;99354.53;5094586;28;20052;-68
2022/04/22 11:08:41;;;;;;;10.43;7.85;;;;;;;14.36;90.60;99354.41;5094445;28;20048;-68
2022/04/22 11:11:13;;;;;;;13.82;9.48;;;;;;;14.35;91.47;99352.00;5092982;28;20056;-68
2022/04/22 11:13:44;;;;;;;14.00;9.27;;;;;;;14.44;90.37;99358.25;5094561;28;20490;-68
2022/04/22 11:16:24;;;;;;;14.90;9.88;;;;;;;14.47;89.12;99357.56;5094477;28;20063;-68
2022/04/22 11:19:22;;;;;;;15.02;9.20;;;;;;;14.45;89.52;99365.34;5094158;28;20040;-68
2022/04/22 11:21:53;;;;;;;11.55;8.77;;;;;;;14.51;88.73;99364.00;5081645;28;20051;-69
2022/04/22 11:24:31;;;;;;;13.95;8.85;;;;;;;14.50;85.53;99362.41;5094185;28;20055;-68
2022/04/22 11:27:08;;;;;;;13.35;9.07;;;;;;;14.59;87.48;99383.53;5094036;28;20064;-69
2022/04/22 11:29:36;;;;;;;11.73;8.43;;;;;;;14.54;88.48;99376.28;5092998;28;20040;-69
2022/04/22 11:32:16;;;;;;;16.50;10.52;;;;;;;14.43;91.38;99372.34;5093849;28;20044;-67
2022/04/22 11:35:31;;;;;;;13.45;9.57;;;;;;;14.51;87.46;99376.94;5094089;28;20074;-69
2022/04/22 11:38:00;;;;;;;13.02;8.60;;;;;;;14.71;85.84;99378.09;5080618;28;20044;-67
2022/04/22 11:40:37;;;;;;;15.50;10.45;;;;;;;14.75;86.68;99381.81;5075763;28;20498;-67
2022/04/22 11:43:06;;;;;;;17.65;10.80;;;;;;;14.55;89.84;99379.84;5076826;28;20048;-68
2022/04/22 11:45:36;;;;;;;12.10;8.90;;;;;;;14.63;91.06;99392.75;5089043;28;20402;-68
2022/04/22 11:48:09;;;;;;;14.75;9.10;;;;;;;14.45;86.52;99392.88;5062431;28;20056;-67
2022/04/22 11:50:39;;;;;;;16.17;9.27;;;;;;;14.50;88.22;99395.44;5080468;28;20047;-68
2022/04/22 11:53:14;;;;;;;13.45;8.27;;;;;;;14.49;87.12;99393.81;5066867;28;20424;-68
2022/04/22 11:55:43;;;;;;;14.13;9.27;;;;;;;14.51;87.77;99398.97;5060578;28;20044;-68
2022/04/22 11:58:12;;;;;;;12.07;8.85;;;;;;;14.41;88.90;99394.69;5057840;28;20045;-68
2022/04/22 12:06:20;;;;;;;15.32;9.20;;;;;;;14.46;89.77;99394.47;5061357;28;20060;-68
2022/04/22 12:09:01;;;;;;;13.45;9.07;;;;;;;14.41;88.60;99402.94;5088464;28;20043;-68
2022/04/22 12:11:30;;;;;;;15.55;10.00;;;;;;;14.28;89.48;99404.00;5093111;28;20410;-68
2022/04/22 12:13:58;;;;;;;13.38;9.15;;;;;;;14.28;89.73;99401.25;5093234;28;20028;-68
2022/04/22 12:16:27;;;;;;;14.27;8.68;;;;;;;14.24;90.25;99412.13;5082055;28;20045;-68
2022/04/22 12:18:56;;;;;;;14.98;8.75;;;;;;;14.23;90.69;99416.81;5068637;28;20056;-68
2022/04/22 12:21:37;;;;;;;12.77;7.88;;;;;;;13.95;91.95;99411.81;5071784;28;20037;-68
2022/04/22 12:24:06;;;;;;;12.98;8.77;;;;;;;13.93;92.81;99405.81;5063022;28;20057;-68
2022/04/22 12:26:44;;;;;;;11.55;8.80;;;;;;;14.04;91.15;99417.28;5061570;28;20040;-68
2022/04/22 12:29:14;;;;;;;12.70;7.85;;;;;;;14.09;89.24;99419.00;5070138;28;20056;-68
2022/04/22 12:31:56;;;;;;;12.05;7.65;;;;;;;14.12;90.65;99421.09;5064457;28;20047;-68
2022/04/22 12:34:30;;;;;;;15.25;7.53;;;;;;;14.24;89.75;99426.69;5068840;28;20041;-68